createdAt,value
2023-04-23T00:01:09.469Z,14.55
2023-04-23T00:03:37.681Z,14.54
2023-04-23T00:06:07.989Z,14.53
2023-04-23T00:08:36.056Z,14.51
2023-04-23T00:11:05.379Z,14.50
2023-04-23T00:13:34.142Z,14.47
2023-04-23T00:16:02.402Z,14.46
2023-04-23T00:18:30.651Z,14.45
2023-04-23T00:20:59.197Z,14.43
2023-04-23T00:23:28.798Z,14.41
2023-04-23T00:25:56.723Z,14.40
2023-04-23T00:28:25.720Z,14.39
2023-04-23T00:30:53.701Z,14.37
2023-04-23T00:33:21.648Z,14.36
2023-04-23T00:35:49.570Z,14.35
2023-04-23T00:38:17.657Z,14.34
2023-04-23T00:40:45.623Z,14.33
2023-04-23T00:43:17.793Z,14.30
2023-04-23T00:45:45.657Z,14.28
2023-04-23T00:48:13.606Z,14.25
2023-04-23T00:50:42.124Z,14.22
2023-04-23T00:53:10.068Z,14.19
2023-04-23T00:55:37.977Z,14.16
2023-04-23T00:58:06.946Z,14.14
2023-04-23T01:00:36.448Z,14.12
2023-04-23T01:03:04.875Z,14.10
2023-04-23T01:05:32.909Z,14.10
2023-04-23T01:08:02.286Z,14.09
2023-04-23T01:10:32.755Z,14.08
2023-04-23T01:13:00.981Z,14.07
2023-04-23T01:15:30.910Z,14.05
2023-04-23T01:17:59.678Z,14.03
2023-04-23T01:20:27.830Z,14.00
2023-04-23T01:22:56.364Z,13.96
2023-04-23T01:25:24.287Z,13.91
2023-04-23T01:27:52.424Z,13.87
2023-04-23T01:30:20.683Z,13.85
2023-04-23T01:32:48.714Z,13.83
2023-04-23T01:35:16.771Z,13.83
2023-04-23T01:37:44.772Z,13.81
2023-04-23T01:40:12.837Z,13.77
2023-04-23T01:42:41.517Z,13.72
2023-04-23T01:45:10.316Z,13.69
2023-04-23T01:47:38.671Z,13.67
2023-04-23T01:50:07.269Z,13.65
2023-04-23T01:52:35.179Z,13.62
2023-04-23T01:55:04.364Z,13.60
2023-04-23T01:57:33.594Z,13.59
2023-04-23T02:00:08.785Z,13.56
2023-04-23T02:02:44.237Z,13.53
2023-04-23T02:05:14.578Z,13.49
2023-04-23T02:07:44.006Z,13.48
2023-04-23T02:10:13.013Z,13.48
2023-04-23T02:12:41.809Z,13.48
2023-04-23T02:15:10.878Z,13.48
2023-04-23T02:17:42.241Z,13.49
2023-04-23T02:20:10.729Z,13.48
2023-04-23T02:22:39.699Z,13.46
2023-04-23T02:25:08.422Z,13.43
2023-04-23T02:27:36.696Z,13.40
2023-04-23T02:30:06.416Z,13.38
2023-04-23T02:32:34.791Z,13.35
2023-04-23T02:35:03.573Z,13.32
2023-04-23T02:37:33.204Z,13.29
2023-04-23T02:40:01.566Z,13.27
2023-04-23T02:42:30.093Z,13.26
2023-04-23T02:44:58.011Z,13.23
2023-04-23T02:47:25.968Z,13.20
2023-04-23T02:49:53.968Z,13.17
2023-04-23T02:52:21.921Z,13.15
2023-04-23T02:54:49.826Z,13.13
2023-04-23T02:57:17.829Z,13.13
2023-04-23T02:59:46.479Z,13.16
2023-04-23T03:02:15.584Z,13.16
2023-04-23T03:04:43.701Z,13.14
2023-04-23T03:07:13.485Z,13.14
2023-04-23T03:09:42.434Z,13.13
2023-04-23T03:12:10.665Z,13.12
2023-04-23T03:14:40.498Z,13.12
2023-04-23T03:17:08.724Z,13.12
2023-04-23T03:19:36.696Z,13.13
2023-04-23T03:22:05.936Z,13.15
2023-04-23T03:24:34.740Z,13.19
2023-04-23T03:27:03.197Z,13.25
2023-04-23T03:29:31.519Z,13.31
2023-04-23T03:31:59.466Z,13.37
2023-04-23T03:34:27.352Z,13.43
2023-04-23T03:36:55.326Z,13.47
2023-04-23T03:39:23.239Z,13.49
2023-04-23T03:41:53.680Z,13.52
2023-04-23T03:44:24.908Z,13.55
2023-04-23T03:46:52.887Z,13.57
2023-04-23T03:49:21.425Z,13.60
2023-04-23T03:51:49.394Z,13.64
2023-04-23T03:54:19.830Z,13.68
2023-04-23T03:57:06.701Z,13.70
2023-04-23T03:59:39.216Z,13.73
2023-04-23T04:02:07.294Z,13.77
2023-04-23T04:04:36.860Z,13.83
2023-04-23T04:07:06.234Z,13.87
2023-04-23T04:09:34.333Z,13.90
2023-04-23T04:12:04.250Z,13.93
2023-04-23T04:14:32.800Z,13.97
2023-04-23T04:17:00.822Z,14.01
2023-04-23T04:19:28.979Z,14.04
2023-04-23T04:21:56.923Z,14.08
2023-04-23T04:24:26.333Z,14.10
2023-04-23T04:26:54.634Z,14.14
2023-04-23T04:29:23.897Z,14.19
2023-04-23T04:31:52.091Z,14.21
2023-04-23T04:34:20.372Z,14.20
2023-04-23T04:36:48.362Z,14.22
2023-04-23T04:39:16.314Z,14.30
2023-04-23T04:41:44.608Z,14.36
2023-04-23T04:44:14.430Z,14.40
2023-04-23T04:46:43.029Z,14.43
2023-04-23T04:49:12.198Z,14.42
2023-04-23T04:51:40.609Z,14.41
2023-04-23T04:54:08.759Z,14.37
2023-04-23T04:56:36.897Z,14.30
2023-04-23T04:59:05.186Z,14.32
2023-04-23T05:01:33.472Z,14.30
2023-04-23T05:04:01.846Z,14.30
2023-04-23T05:06:31.381Z,14.35
2023-04-23T05:08:59.574Z,14.37
2023-04-23T05:11:27.568Z,14.40
2023-04-23T05:13:56.772Z,14.47
2023-04-23T05:16:24.740Z,14.56
2023-04-23T05:18:52.652Z,14.63
2023-04-23T05:21:20.868Z,14.70
2023-04-23T05:23:49.901Z,14.77
2023-04-23T05:26:18.361Z,14.87
2023-04-23T05:28:46.403Z,14.92
2023-04-23T05:31:14.354Z,14.97
2023-04-23T05:33:49.966Z,15.09
2023-04-23T05:36:19.138Z,15.27
2023-04-23T05:38:47.374Z,15.52
2023-04-23T05:41:15.738Z,15.61
2023-04-23T05:43:44.151Z,15.43
2023-04-23T05:46:12.102Z,15.19
2023-04-23T05:48:41.027Z,15.16
2023-04-23T05:51:09.200Z,15.37
2023-04-23T05:53:37.826Z,15.65
2023-04-23T05:56:05.888Z,15.82
2023-04-23T05:58:34.443Z,15.93
2023-04-23T06:01:03.194Z,15.99
2023-04-23T06:04:53.431Z,15.95
2023-04-23T06:07:21.744Z,16.47
2023-04-23T06:09:50.755Z,16.49
2023-04-23T06:12:18.712Z,16.51
2023-04-23T06:14:46.631Z,16.51
2023-04-23T06:17:14.632Z,16.53
2023-04-23T06:19:42.826Z,16.53
2023-04-23T06:22:10.716Z,16.57
2023-04-23T06:24:39.119Z,16.65
2023-04-23T06:27:07.877Z,16.71
2023-04-23T06:29:38.058Z,16.90
2023-04-23T06:32:07.471Z,16.91
2023-04-23T06:34:36.106Z,16.93
2023-04-23T06:37:05.334Z,16.99
2023-04-23T06:39:33.304Z,17.11
2023-04-23T06:42:01.807Z,17.22
2023-04-23T06:44:47.102Z,17.32
2023-04-23T06:47:15.022Z,17.55
2023-04-23T06:49:44.391Z,17.91
2023-04-23T06:52:12.252Z,18.18
2023-04-23T06:54:40.972Z,18.17
2023-04-23T06:57:09.552Z,18.06
2023-04-23T06:59:37.489Z,17.97
2023-04-23T07:02:05.379Z,17.87
2023-04-23T07:04:34.076Z,17.80
2023-04-23T07:07:02.179Z,17.81
2023-04-23T07:09:30.933Z,17.83
2023-04-23T07:12:00.294Z,17.91
2023-04-23T07:14:28.575Z,18.11
2023-04-23T07:16:56.494Z,18.39
2023-04-23T07:19:25.024Z,18.65
2023-04-23T07:21:53.770Z,18.70
2023-04-23T07:24:21.803Z,18.87
2023-04-23T07:26:49.756Z,19.01
2023-04-23T07:29:17.913Z,19.04
2023-04-23T07:31:46.510Z,19.15
2023-04-23T07:34:14.482Z,19.33
2023-04-23T07:36:42.371Z,19.29
2023-04-23T07:39:10.369Z,19.32
2023-04-23T07:41:38.573Z,19.41
2023-04-23T07:44:06.706Z,19.63
2023-04-23T07:46:34.722Z,19.90
2023-04-23T07:49:02.819Z,20.00
2023-04-23T07:51:31.956Z,19.72
2023-04-23T07:54:00.126Z,19.47
2023-04-23T07:56:28.203Z,19.46
2023-04-23T07:58:58.279Z,19.49
2023-04-23T08:01:27.651Z,19.62
2023-04-23T08:04:00.914Z,19.62
2023-04-23T08:06:31.417Z,19.41
2023-04-23T08:09:00.398Z,19.29
2023-04-23T08:11:29.743Z,19.10
2023-04-23T08:13:57.650Z,19.06
2023-04-23T08:16:26.187Z,18.97
2023-04-23T08:19:04.664Z,18.76
2023-04-23T08:21:34.045Z,18.58
2023-04-23T08:24:03.289Z,18.52
2023-04-23T08:26:31.668Z,18.49
2023-04-23T08:29:00.859Z,18.48
2023-04-23T08:31:29.129Z,18.57
2023-04-23T08:33:57.046Z,18.59
2023-04-23T08:36:26.992Z,18.69
2023-04-23T08:38:54.886Z,18.91
2023-04-23T08:41:23.588Z,19.17
2023-04-23T08:44:12.848Z,19.36
2023-04-23T08:46:43.157Z,19.57
2023-04-23T08:49:16.001Z,19.68
2023-04-23T08:51:50.889Z,19.89
2023-04-23T08:54:27.133Z,19.80
2023-04-23T08:56:57.506Z,19.89
2023-04-23T08:59:30.488Z,19.87
2023-04-23T09:01:59.919Z,19.50
2023-04-23T09:04:28.584Z,19.43
2023-04-23T09:06:56.971Z,19.49
2023-04-23T09:09:24.978Z,19.51
2023-04-23T09:11:54.898Z,19.38
2023-04-23T09:14:25.610Z,19.27
2023-04-23T09:16:53.926Z,19.18
2023-04-23T09:19:22.246Z,19.17
2023-04-23T09:21:50.142Z,19.15
2023-04-23T09:24:18.184Z,19.10
2023-04-23T09:26:47.262Z,19.07
2023-04-23T09:29:23.559Z,19.07
2023-04-23T09:31:53.713Z,19.06
2023-04-23T09:34:23.390Z,19.07
2023-04-23T09:36:52.186Z,19.03
2023-04-23T09:39:22.769Z,18.93
2023-04-23T09:41:54.202Z,18.84
2023-04-23T09:44:26.602Z,18.85
2023-04-23T09:46:54.538Z,18.90
2023-04-23T09:49:22.652Z,18.99
2023-04-23T09:51:51.393Z,19.17
2023-04-23T09:54:23.722Z,19.41
2023-04-23T09:56:53.981Z,19.65
2023-04-23T09:59:46.835Z,19.81
2023-04-23T10:02:14.732Z,19.81
2023-04-23T10:04:43.031Z,19.80
2023-04-23T10:07:19.627Z,19.89
2023-04-23T10:09:48.666Z,19.99
2023-04-23T10:12:36.581Z,20.07
2023-04-23T10:15:05.812Z,19.83
2023-04-23T10:17:36.372Z,19.78
2023-04-23T10:20:07.176Z,19.83
2023-04-23T10:22:36.259Z,19.81
2023-04-23T10:25:08.749Z,19.75
2023-04-23T10:27:52.157Z,19.58
2023-04-23T10:30:22.227Z,19.75
2023-04-23T10:32:50.634Z,19.86
2023-04-23T10:35:19.042Z,20.12
2023-04-23T10:37:48.307Z,20.45
2023-04-23T10:40:22.044Z,20.73
2023-04-23T10:42:50.121Z,20.78
2023-04-23T10:45:24.876Z,21.06
2023-04-23T10:47:55.415Z,21.38
2023-04-23T10:50:30.840Z,21.61
2023-04-23T10:52:59.332Z,21.73
2023-04-23T10:55:28.818Z,21.95
2023-04-23T10:58:07.610Z,22.19
2023-04-23T11:00:41.489Z,22.56
2023-04-23T11:03:29.216Z,22.92
2023-04-23T11:06:01.126Z,23.25
2023-04-23T11:08:33.376Z,23.38
2023-04-23T11:11:02.976Z,23.47
2023-04-23T11:13:31.055Z,23.45
2023-04-23T11:16:18.759Z,23.25
2023-04-23T11:19:11.435Z,22.88
2023-04-23T11:21:54.791Z,22.50
2023-04-23T11:24:23.989Z,22.37
2023-04-23T11:26:53.304Z,22.40
2023-04-23T11:29:24.972Z,22.39
2023-04-23T11:32:02.251Z,22.32
2023-04-23T11:34:33.127Z,22.32
2023-04-23T11:37:02.373Z,22.38
2023-04-23T11:39:30.762Z,22.47
2023-04-23T11:42:03.460Z,22.29
2023-04-23T11:44:32.038Z,22.18
2023-04-23T11:47:02.124Z,22.42
2023-04-23T11:49:30.352Z,22.54
2023-04-23T11:52:00.736Z,22.86
2023-04-23T11:54:29.696Z,23.15
2023-04-23T11:57:01.507Z,23.20
2023-04-23T11:59:29.632Z,23.17
2023-04-23T12:01:58.885Z,23.07
2023-04-23T12:51:50.123Z,25.37
2023-04-23T12:54:18.152Z,25.09
2023-04-23T12:56:46.048Z,24.78
2023-04-23T12:59:13.909Z,24.57
2023-04-23T13:01:41.889Z,24.37
2023-04-23T13:04:09.976Z,24.17
2023-04-23T13:06:38.224Z,24.04
2023-04-23T13:09:06.182Z,23.92
2023-04-23T13:11:34.500Z,23.83
2023-04-23T13:14:02.482Z,23.88
2023-04-23T13:16:30.511Z,23.91
2023-04-23T13:18:59.497Z,23.81
2023-04-23T13:21:27.558Z,23.70
2023-04-23T13:32:36.731Z,23.17
2023-04-23T13:35:05.226Z,23.10
2023-04-23T13:37:35.610Z,23.16
2023-04-23T13:40:03.754Z,23.10
2023-04-23T13:42:34.405Z,23.17
2023-04-23T13:45:05.153Z,23.40
2023-04-23T13:47:35.072Z,23.82
2023-04-23T13:50:05.579Z,24.22
2023-04-23T13:52:33.958Z,24.53
2023-04-23T13:55:04.226Z,24.80
2023-04-23T13:57:32.576Z,25.19
2023-04-23T14:00:00.820Z,25.64
2023-04-23T14:02:28.862Z,25.99
2023-04-23T14:04:58.484Z,26.27
2023-04-23T14:07:26.615Z,26.42
2023-04-23T14:09:54.619Z,25.93
2023-04-23T14:12:24.111Z,25.34
2023-04-23T14:14:52.062Z,24.85
2023-04-23T14:17:20.059Z,24.29
2023-04-23T14:19:48.219Z,23.96
2023-04-23T14:22:16.443Z,23.71
2023-04-23T14:24:45.921Z,23.45
2023-04-23T14:27:13.901Z,23.20
2023-04-23T14:29:52.495Z,22.93
2023-04-23T14:32:20.894Z,22.71
2023-04-23T14:34:48.939Z,22.54
2023-04-23T14:37:17.628Z,22.39
2023-04-23T14:39:44.592Z,22.24
2023-04-23T14:42:11.688Z,22.05
2023-04-23T14:44:38.461Z,21.89
2023-04-23T14:47:08.302Z,21.82
2023-04-23T14:49:35.086Z,21.75
2023-04-23T14:52:02.123Z,21.64
2023-04-23T14:54:28.912Z,21.55
2023-04-23T14:56:56.591Z,21.51
2023-04-23T14:59:23.546Z,21.49
2023-04-23T15:01:50.459Z,21.48
2023-04-23T15:04:17.620Z,21.64
2023-04-23T15:06:44.541Z,22.08
2023-04-23T15:09:11.274Z,22.60
2023-04-23T15:11:41.794Z,23.10
2023-04-23T15:14:12.154Z,23.62
2023-04-23T15:19:11.970Z,24.32
2023-04-23T15:21:41.926Z,24.59
2023-04-23T15:24:08.981Z,24.83
2023-04-23T15:26:36.521Z,25.02
2023-04-23T15:29:04.061Z,25.19
2023-04-23T15:31:30.999Z,25.35
2023-04-23T15:33:57.839Z,25.48
2023-04-23T15:36:25.255Z,25.65
2023-04-23T15:38:52.083Z,25.79
2023-04-23T15:41:18.903Z,25.89
2023-04-23T15:43:46.549Z,25.85
2023-04-23T15:46:13.444Z,25.68
2023-04-23T15:48:40.316Z,25.51
2023-04-23T15:51:07.466Z,25.44
2023-04-23T15:53:34.253Z,25.35
2023-04-23T15:56:01.104Z,25.28
2023-04-23T15:58:27.955Z,25.19
2023-04-23T16:00:54.997Z,25.06
2023-04-23T16:03:21.942Z,24.94
2023-04-23T16:05:51.062Z,24.81
2023-04-23T16:08:17.929Z,24.70
2023-04-23T16:10:44.744Z,24.59
2023-04-23T16:13:11.520Z,24.45
2023-04-23T16:15:38.317Z,24.30
2023-04-23T16:18:06.351Z,24.15
2023-04-23T16:20:33.495Z,24.01
2023-04-23T16:23:00.367Z,23.87
2023-04-23T16:25:27.201Z,23.71
2023-04-23T16:27:54.081Z,23.54
2023-04-23T16:30:21.187Z,23.34
2023-04-23T16:32:48.134Z,23.16
2023-04-23T16:35:14.993Z,22.97
2023-04-23T16:37:41.805Z,22.80
2023-04-23T16:40:10.413Z,22.65
2023-04-23T16:42:37.353Z,22.48
2023-04-23T16:45:05.097Z,22.34
2023-04-23T16:47:32.030Z,22.17
2023-04-23T16:49:58.960Z,21.99
2023-04-23T16:52:25.790Z,21.81
2023-04-23T16:54:52.801Z,21.59
2023-04-23T16:57:19.690Z,21.34
2023-04-23T16:59:46.483Z,21.09
2023-04-23T17:02:13.328Z,20.83
2023-04-23T17:04:40.390Z,20.55
2023-04-23T17:07:07.615Z,20.26
2023-04-23T17:09:34.799Z,19.96
2023-04-23T17:12:02.532Z,19.68
2023-04-23T17:14:29.369Z,19.41
2023-04-23T17:16:56.397Z,19.18
2023-04-23T17:19:23.161Z,18.97
2023-04-23T17:21:49.938Z,18.79
2023-04-23T17:24:16.764Z,18.63
2023-04-23T17:26:43.778Z,18.49
2023-04-23T17:29:11.661Z,18.36
2023-04-23T17:31:38.762Z,18.22
2023-04-23T17:34:05.704Z,18.10
2023-04-23T17:36:33.108Z,17.98
2023-04-23T17:38:59.964Z,17.89
2023-04-23T17:41:26.795Z,17.79
2023-04-23T17:43:53.677Z,17.69
2023-04-23T17:46:20.920Z,17.59
2023-04-23T17:48:48.423Z,17.48
2023-04-23T17:51:15.255Z,17.39
2023-04-23T17:53:42.603Z,17.31
2023-04-23T17:56:10.244Z,17.21
2023-04-23T17:58:38.330Z,17.12
2023-04-23T18:01:10.189Z,17.05
2023-04-23T18:03:37.328Z,16.99
2023-04-23T18:06:04.784Z,16.91
2023-04-23T18:08:31.717Z,16.85
2023-04-23T18:10:58.736Z,16.80
2023-04-23T18:13:25.571Z,16.75
2023-04-23T18:15:52.639Z,16.71
2023-04-23T18:18:19.475Z,16.71
2023-04-23T18:22:37.792Z,16.27
2023-04-23T18:25:10.072Z,16.56
2023-04-23T18:27:37.038Z,16.57
2023-04-23T18:30:05.866Z,16.55
2023-04-23T18:32:40.946Z,16.51
2023-04-23T18:35:09.252Z,16.45
2023-04-23T18:37:48.640Z,16.38
2023-04-23T18:40:15.525Z,16.33
2023-04-23T18:42:42.304Z,16.27
2023-04-23T18:45:10.787Z,16.22
2023-04-23T18:47:46.521Z,16.19
2023-04-23T18:50:30.093Z,16.14
2023-04-23T18:52:56.883Z,16.08
2023-04-23T18:55:24.655Z,16.02
2023-04-23T18:57:51.530Z,16.02
2023-04-23T19:00:18.402Z,15.98
2023-04-23T19:02:45.287Z,15.95
2023-04-23T19:05:12.329Z,15.90
2023-04-23T19:07:41.386Z,15.86
2023-04-23T19:10:11.720Z,15.81
2023-04-23T19:12:38.499Z,15.77
2023-04-23T19:15:05.960Z,15.71
2023-04-23T19:17:33.100Z,15.67
2023-04-23T19:19:59.966Z,15.62
2023-04-23T19:22:27.258Z,15.58
2023-04-23T19:24:54.052Z,15.55
2023-04-23T19:27:21.573Z,15.52
2023-04-23T19:29:49.465Z,15.51
2023-04-23T19:32:16.321Z,15.48
2023-04-23T19:34:43.129Z,15.45
2023-04-23T19:37:09.935Z,15.45
2023-04-23T19:39:36.720Z,15.42
2023-04-23T19:42:04.577Z,15.38
2023-04-23T19:44:31.381Z,15.30
2023-04-23T19:46:58.196Z,15.25
2023-04-23T19:49:24.995Z,15.19
2023-04-23T19:51:53.246Z,15.14
2023-04-23T19:54:20.674Z,15.12
2023-04-23T19:56:48.238Z,15.08
2023-04-23T19:59:17.048Z,15.05
2023-04-23T20:01:43.805Z,15.01
2023-04-23T20:04:10.697Z,14.98
2023-04-23T20:06:37.778Z,14.96
2023-04-23T20:09:07.511Z,14.95
2023-04-23T20:11:35.418Z,14.94
2023-04-23T20:14:02.838Z,14.91
2023-04-23T20:16:29.718Z,14.88
2023-04-23T20:18:56.714Z,14.86
2023-04-23T20:21:23.991Z,14.82
2023-04-23T20:23:51.908Z,14.78
2023-04-23T20:26:19.687Z,14.78
2023-04-23T20:28:48.295Z,14.76
2023-04-23T20:31:15.205Z,14.73
2023-04-23T20:33:42.007Z,14.68
2023-04-23T20:36:10.960Z,14.67
2023-04-23T20:38:38.151Z,14.66
2023-04-23T20:41:05.938Z,14.64
2023-04-23T20:43:34.257Z,14.62
2023-04-23T20:46:01.636Z,14.63
2023-04-23T20:48:32.035Z,14.65
2023-04-23T20:50:59.616Z,14.66
2023-04-23T20:53:26.560Z,14.67
2023-04-23T20:55:53.325Z,14.68
2023-04-23T20:58:20.146Z,14.68
2023-04-23T21:00:47.991Z,14.67
2023-04-23T21:03:14.844Z,14.69
2023-04-23T21:05:44.675Z,14.69
2023-04-23T21:08:11.641Z,14.68
2023-04-23T21:10:39.041Z,14.65
2023-04-23T21:13:07.267Z,14.62
2023-04-23T21:15:35.646Z,14.65
2023-04-23T21:18:02.979Z,14.63
2023-04-23T21:20:30.079Z,14.63
2023-04-23T21:22:56.816Z,14.62
2023-04-23T21:25:23.586Z,14.60
2023-04-23T21:27:50.532Z,14.57
2023-04-23T21:30:38.556Z,14.55
2023-04-23T21:33:06.420Z,14.54
2023-04-23T21:35:33.234Z,14.49
2023-04-23T21:38:00.031Z,14.44
2023-04-23T21:40:26.858Z,14.40
2023-04-23T21:42:53.637Z,14.38
2023-04-23T21:45:20.587Z,14.36
2023-04-23T21:47:47.364Z,14.36
2023-04-23T21:50:14.223Z,14.34
2023-04-23T21:52:42.001Z,14.33
2023-04-23T21:55:11.466Z,14.33
2023-04-23T21:57:39.062Z,14.33
2023-04-23T22:00:11.210Z,14.33
2023-04-23T22:02:42.225Z,14.31
2023-04-23T22:05:09.774Z,14.25
2023-04-23T22:07:41.191Z,14.26
2023-04-23T22:10:11.650Z,14.29
2023-04-23T22:12:41.948Z,14.32
2023-04-23T22:15:13.875Z,14.34
2023-04-23T22:17:42.563Z,14.35
2023-04-23T22:20:12.022Z,14.37
2023-04-23T22:22:40.116Z,14.35
2023-04-23T22:25:08.057Z,14.30
2023-04-23T22:27:37.111Z,14.24
2023-04-23T22:30:06.732Z,14.20
2023-04-23T22:32:34.383Z,14.20
2023-04-23T22:35:01.288Z,14.17
2023-04-23T22:37:29.340Z,14.13
2023-04-23T22:39:56.178Z,14.12
2023-04-23T22:42:22.999Z,14.11
2023-04-23T22:44:49.797Z,14.11
2023-04-23T22:47:17.976Z,14.09
2023-04-23T22:49:44.992Z,14.09
2023-04-23T22:52:14.235Z,14.11
2023-04-23T22:54:41.777Z,14.11
2023-04-23T22:57:09.244Z,14.11
2023-04-23T22:59:36.209Z,14.10
2023-04-23T23:02:03.002Z,14.07
2023-04-23T23:04:29.900Z,14.04
2023-04-23T23:06:56.708Z,14.02
2023-04-23T23:09:24.571Z,13.99
2023-04-23T23:11:51.359Z,13.95
2023-04-23T23:14:18.428Z,13.92
2023-04-23T23:16:45.372Z,13.90
2023-04-23T23:19:12.714Z,13.88
2023-04-23T23:21:39.590Z,13.87
2023-04-23T23:24:06.394Z,13.81
2023-04-23T23:26:34.193Z,13.73
2023-04-23T23:29:02.037Z,13.68
2023-04-23T23:31:28.860Z,13.66
2023-04-23T23:33:55.756Z,13.64
2023-04-23T23:36:22.593Z,13.63
2023-04-23T23:38:51.037Z,13.59
2023-04-23T23:41:17.840Z,13.57
2023-04-23T23:43:44.628Z,13.54
2023-04-23T23:46:11.924Z,13.50
2023-04-23T23:48:38.794Z,13.48
2023-04-23T23:51:05.665Z,13.49
2023-04-23T23:53:32.433Z,13.47
2023-04-23T23:56:00.202Z,13.46
2023-04-23T23:58:29.406Z,13.42
